Route Details

Aircraft Information
Group: North America Fleet
Types: B738, B752, B762, B763
Route Data
Distance: 1609nm
Duration: 4h 45m
Origin METAR: KCVG 072310Z 23005KT 10SM SCT026 OVC037 11/09 A3013 RMK AO2 CIG 029 36R T01110089
Dest. METAR: KONT 072253Z VRB04KT 10SM FEW250 20/M02 A3020 RMK AO2 SLP221 T02001022
Freight Data
(for Feb 7, 2023)
Load Factor:
29%
Manifested Cargo: 17,167lbs
Financial History
Total Freight: 38,298lbs
Average Load: 0lbs/flt
Fuel Used: 24,937lbs
Avg. Fuel Used: 0lbs/flt
Fuel Expense: $13,217
Avg. Fuel Expense: $0
Avg. Fuel Cost: $0/lbs
Total Gross Income: $100,341
Pilot Pay: $269
Total Expenses: $20,830
Total Revenue: $64,416
Average Revenue: $0

Capitol Logistics 430




KCVG
Cincinnati/Northern Kentucky International Airport
Covington, Kentucky
KONT
Ontario International Airport
Ontario, California

Activity Log

Date Flight Route Aircraft Duration
11/23/2022 CPX430 LOVEY6 AXC DCT SPI DCT IRK DCT PWE J130 MCK J44 FQF J80 DBL DCT ZAKRY Q114 NATEE JCKIE2 B752 4h 29m